sensor_id;sensor_type;location;lat;lon;timestamp;P1;durP1;ratioP1;P2;durP2;ratioP2
36751;SDS011;22718;49.494;7.036;2023-03-23T00:01:06;1.33;;;0.28;;
36751;SDS011;22718;49.494;7.036;2023-03-23T00:03:35;3.95;;;0.35;;
36751;SDS011;22718;49.494;7.036;2023-03-23T00:06:05;0.98;;;0.20;;
36751;SDS011;22718;49.494;7.036;2023-03-23T00:08:32;1.52;;;0.20;;
36751;SDS011;22718;49.494;7.036;2023-03-23T00:10:59;2.33;;;0.40;;
36751;SDS011;22718;49.494;7.036;2023-03-23T00:13:26;1.98;;;0.30;;
36751;SDS011;22718;49.494;7.036;2023-03-23T00:15:53;1.50;;;0.20;;
36751;SDS011;22718;49.494;7.036;2023-03-23T00:18:19;1.27;;;0.20;;
36751;SDS011;22718;49.494;7.036;2023-03-23T00:20:57;1.87;;;0.30;;
36751;SDS011;22718;49.494;7.036;2023-03-23T00:23:23;1.63;;;0.52;;
36751;SDS011;22718;49.494;7.036;2023-03-23T00:25:51;1.25;;;0.30;;
36751;SDS011;22718;49.494;7.036;2023-03-23T00:28:19;1.75;;;0.30;;
36751;SDS011;22718;49.494;7.036;2023-03-23T00:30:57;2.10;;;0.30;;
36751;SDS011;22718;49.494;7.036;2023-03-23T00:33:29;1.88;;;0.28;;
36751;SDS011;22718;49.494;7.036;2023-03-23T00:36:02;1.98;;;0.30;;
36751;SDS011;22718;49.494;7.036;2023-03-23T00:38:29;1.90;;;0.30;;
36751;SDS011;22718;49.494;7.036;2023-03-23T00:41:02;1.42;;;0.30;;
36751;SDS011;22718;49.494;7.036;2023-03-23T00:43:28;2.50;;;0.40;;
36751;SDS011;22718;49.494;7.036;2023-03-23T00:45:55;2.28;;;0.22;;
36751;SDS011;22718;49.494;7.036;2023-03-23T00:48:22;1.77;;;0.40;;
36751;SDS011;22718;49.494;7.036;2023-03-23T00:50:49;1.23;;;0.20;;
36751;SDS011;22718;49.494;7.036;2023-03-23T00:53:16;2.28;;;0.30;;
36751;SDS011;22718;49.494;7.036;2023-03-23T00:55:43;1.83;;;0.38;;
36751;SDS011;22718;49.494;7.036;2023-03-23T00:58:10;3.72;;;0.50;;
36751;SDS011;22718;49.494;7.036;2023-03-23T01:00:37;1.20;;;0.45;;
36751;SDS011;22718;49.494;7.036;2023-03-23T01:03:03;2.58;;;0.73;;
36751;SDS011;22718;49.494;7.036;2023-03-23T01:05:34;2.00;;;0.40;;
36751;SDS011;22718;49.494;7.036;2023-03-23T01:08:01;1.48;;;0.30;;
36751;SDS011;22718;49.494;7.036;2023-03-23T01:10:33;2.33;;;0.50;;
36751;SDS011;22718;49.494;7.036;2023-03-23T01:13:01;3.25;;;0.55;;
36751;SDS011;22718;49.494;7.036;2023-03-23T01:15:30;3.25;;;1.13;;
36751;SDS011;22718;49.494;7.036;2023-03-23T01:18:06;1.35;;;0.32;;
36751;SDS011;22718;49.494;7.036;2023-03-23T01:20:36;2.17;;;0.70;;
36751;SDS011;22718;49.494;7.036;2023-03-23T01:23:02;1.67;;;0.30;;
36751;SDS011;22718;49.494;7.036;2023-03-23T01:25:32;1.80;;;0.28;;
36751;SDS011;22718;49.494;7.036;2023-03-23T01:28:01;1.40;;;0.30;;
36751;SDS011;22718;49.494;7.036;2023-03-23T01:30:30;2.00;;;0.35;;
36751;SDS011;22718;49.494;7.036;2023-03-23T01:32:55;3.10;;;0.30;;
36751;SDS011;22718;49.494;7.036;2023-03-23T01:35:21;1.30;;;0.40;;
36751;SDS011;22718;49.494;7.036;2023-03-23T01:37:47;1.10;;;0.40;;
36751;SDS011;22718;49.494;7.036;2023-03-23T01:40:14;0.75;;;0.20;;
36751;SDS011;22718;49.494;7.036;2023-03-23T01:42:41;2.17;;;0.40;;
36751;SDS011;22718;49.494;7.036;2023-03-23T01:47:45;1.80;;;0.30;;
36751;SDS011;22718;49.494;7.036;2023-03-23T01:50:17;2.40;;;0.40;;
36751;SDS011;22718;49.494;7.036;2023-03-23T01:52:45;1.20;;;0.28;;
36751;SDS011;22718;49.494;7.036;2023-03-23T01:55:11;1.27;;;0.40;;
36751;SDS011;22718;49.494;7.036;2023-03-23T01:57:37;3.28;;;0.60;;
36751;SDS011;22718;49.494;7.036;2023-03-23T02:00:04;0.98;;;0.28;;
36751;SDS011;22718;49.494;7.036;2023-03-23T02:02:35;1.80;;;0.40;;
36751;SDS011;22718;49.494;7.036;2023-03-23T02:05:04;1.73;;;0.38;;
36751;SDS011;22718;49.494;7.036;2023-03-23T02:07:40;1.75;;;0.30;;
36751;SDS011;22718;49.494;7.036;2023-03-23T02:10:06;1.45;;;0.30;;
36751;SDS011;22718;49.494;7.036;2023-03-23T02:12:32;1.02;;;0.30;;
36751;SDS011;22718;49.494;7.036;2023-03-23T02:14:59;1.35;;;0.38;;
36751;SDS011;22718;49.494;7.036;2023-03-23T02:20:23;1.88;;;0.50;;
36751;SDS011;22718;49.494;7.036;2023-03-23T02:26:07;2.15;;;0.50;;
36751;SDS011;22718;49.494;7.036;2023-03-23T02:34:34;3.30;;;0.60;;
36751;SDS011;22718;49.494;7.036;2023-03-23T02:37:14;2.38;;;0.52;;
36751;SDS011;22718;49.494;7.036;2023-03-23T02:39:51;1.58;;;0.30;;
36751;SDS011;22718;49.494;7.036;2023-03-23T02:42:21;2.83;;;0.60;;
36751;SDS011;22718;49.494;7.036;2023-03-23T02:44:51;1.52;;;0.40;;
36751;SDS011;22718;49.494;7.036;2023-03-23T02:47:22;3.10;;;0.40;;
36751;SDS011;22718;49.494;7.036;2023-03-23T02:49:51;2.45;;;0.40;;
36751;SDS011;22718;49.494;7.036;2023-03-23T02:52:21;2.53;;;0.40;;
36751;SDS011;22718;49.494;7.036;2023-03-23T02:54:49;2.55;;;0.50;;
36751;SDS011;22718;49.494;7.036;2023-03-23T02:57:17;1.60;;;0.38;;
36751;SDS011;22718;49.494;7.036;2023-03-23T02:59:43;2.03;;;0.70;;
36751;SDS011;22718;49.494;7.036;2023-03-23T03:02:13;2.83;;;0.40;;
36751;SDS011;22718;49.494;7.036;2023-03-23T03:04:47;3.97;;;0.65;;
36751;SDS011;22718;49.494;7.036;2023-03-23T03:09:53;1.98;;;0.60;;
36751;SDS011;22718;49.494;7.036;2023-03-23T03:18:12;2.90;;;0.52;;
36751;SDS011;22718;49.494;7.036;2023-03-23T03:20:49;2.42;;;0.45;;
36751;SDS011;22718;49.494;7.036;2023-03-23T03:23:18;3.53;;;0.60;;
36751;SDS011;22718;49.494;7.036;2023-03-23T03:25:46;3.08;;;0.50;;
36751;SDS011;22718;49.494;7.036;2023-03-23T03:28:17;2.97;;;0.50;;
36751;SDS011;22718;49.494;7.036;2023-03-23T03:30:46;4.03;;;1.23;;
36751;SDS011;22718;49.494;7.036;2023-03-23T03:33:16;3.97;;;0.50;;
36751;SDS011;22718;49.494;7.036;2023-03-23T03:35:45;2.75;;;0.60;;
36751;SDS011;22718;49.494;7.036;2023-03-23T03:38:12;4.00;;;0.50;;
36751;SDS011;22718;49.494;7.036;2023-03-23T03:40:38;3.75;;;0.50;;
36751;SDS011;22718;49.494;7.036;2023-03-23T03:43:04;8.05;;;0.70;;
36751;SDS011;22718;49.494;7.036;2023-03-23T03:45:31;3.83;;;0.82;;
36751;SDS011;22718;49.494;7.036;2023-03-23T03:47:57;2.60;;;0.60;;
36751;SDS011;22718;49.494;7.036;2023-03-23T03:50:23;6.38;;;0.80;;
36751;SDS011;22718;49.494;7.036;2023-03-23T03:52:49;1.70;;;0.32;;
36751;SDS011;22718;49.494;7.036;2023-03-23T03:55:14;6.10;;;0.75;;
36751;SDS011;22718;49.494;7.036;2023-03-23T03:57:42;3.17;;;0.50;;
36751;SDS011;22718;49.494;7.036;2023-03-23T04:00:08;4.47;;;0.90;;
36751;SDS011;22718;49.494;7.036;2023-03-23T04:02:44;2.45;;;0.63;;
36751;SDS011;22718;49.494;7.036;2023-03-23T04:05:19;2.08;;;0.77;;
36751;SDS011;22718;49.494;7.036;2023-03-23T04:10:16;2.75;;;0.77;;
36751;SDS011;22718;49.494;7.036;2023-03-23T04:12:50;2.83;;;0.80;;
36751;SDS011;22718;49.494;7.036;2023-03-23T04:15:15;2.35;;;0.80;;
36751;SDS011;22718;49.494;7.036;2023-03-23T04:17:41;3.63;;;0.88;;
36751;SDS011;22718;49.494;7.036;2023-03-23T04:20:07;7.70;;;1.25;;
36751;SDS011;22718;49.494;7.036;2023-03-23T04:22:40;5.28;;;1.60;;
36751;SDS011;22718;49.494;7.036;2023-03-23T04:25:08;5.25;;;1.42;;
36751;SDS011;22718;49.494;7.036;2023-03-23T04:27:36;6.75;;;1.85;;
36751;SDS011;22718;49.494;7.036;2023-03-23T04:30:01;5.15;;;1.98;;
36751;SDS011;22718;49.494;7.036;2023-03-23T04:32:28;7.80;;;3.42;;
36751;SDS011;22718;49.494;7.036;2023-03-23T04:34:57;7.68;;;3.70;;
36751;SDS011;22718;49.494;7.036;2023-03-23T04:37:24;7.68;;;3.33;;
36751;SDS011;22718;49.494;7.036;2023-03-23T04:39:53;5.80;;;3.03;;
36751;SDS011;22718;49.494;7.036;2023-03-23T04:42:28;7.15;;;3.30;;
36751;SDS011;22718;49.494;7.036;2023-03-23T04:44:56;6.18;;;2.92;;
36751;SDS011;22718;49.494;7.036;2023-03-23T04:47:22;6.93;;;2.63;;
36751;SDS011;22718;49.494;7.036;2023-03-23T04:49:49;5.50;;;3.00;;
36751;SDS011;22718;49.494;7.036;2023-03-23T04:52:16;6.57;;;2.85;;
36751;SDS011;22718;49.494;7.036;2023-03-23T04:54:42;6.90;;;2.28;;
36751;SDS011;22718;49.494;7.036;2023-03-23T04:57:09;3.80;;;1.80;;
36751;SDS011;22718;49.494;7.036;2023-03-23T04:59:35;3.78;;;1.52;;
36751;SDS011;22718;49.494;7.036;2023-03-23T05:02:00;3.58;;;1.50;;
36751;SDS011;22718;49.494;7.036;2023-03-23T05:04:26;3.58;;;1.25;;
36751;SDS011;22718;49.494;7.036;2023-03-23T05:06:52;3.53;;;0.95;;
36751;SDS011;22718;49.494;7.036;2023-03-23T05:09:18;4.18;;;1.13;;
36751;SDS011;22718;49.494;7.036;2023-03-23T05:11:44;2.97;;;1.15;;
36751;SDS011;22718;49.494;7.036;2023-03-23T05:14:11;5.32;;;1.13;;
36751;SDS011;22718;49.494;7.036;2023-03-23T05:16:36;6.07;;;1.00;;
36751;SDS011;22718;49.494;7.036;2023-03-23T05:19:03;10.60;;;1.23;;
36751;SDS011;22718;49.494;7.036;2023-03-23T05:21:29;7.47;;;1.38;;
36751;SDS011;22718;49.494;7.036;2023-03-23T05:23:56;4.97;;;1.20;;
36751;SDS011;22718;49.494;7.036;2023-03-23T05:26:22;3.85;;;1.85;;
36751;SDS011;22718;49.494;7.036;2023-03-23T05:28:53;4.95;;;1.60;;
36751;SDS011;22718;49.494;7.036;2023-03-23T05:31:21;6.20;;;1.52;;
36751;SDS011;22718;49.494;7.036;2023-03-23T05:33:47;5.75;;;1.77;;
36751;SDS011;22718;49.494;7.036;2023-03-23T05:36:12;3.35;;;1.20;;
36751;SDS011;22718;49.494;7.036;2023-03-23T05:38:39;5.75;;;2.05;;
36751;SDS011;22718;49.494;7.036;2023-03-23T05:41:09;6.25;;;1.63;;
36751;SDS011;22718;49.494;7.036;2023-03-23T05:43:35;10.32;;;2.40;;
36751;SDS011;22718;49.494;7.036;2023-03-23T05:46:00;6.88;;;2.30;;
36751;SDS011;22718;49.494;7.036;2023-03-23T05:48:26;4.72;;;1.88;;
36751;SDS011;22718;49.494;7.036;2023-03-23T05:50:52;5.10;;;1.60;;
36751;SDS011;22718;49.494;7.036;2023-03-23T05:56:00;5.88;;;2.00;;
36751;SDS011;22718;49.494;7.036;2023-03-23T05:58:27;5.70;;;1.63;;
36751;SDS011;22718;49.494;7.036;2023-03-23T06:00:52;3.40;;;1.10;;
36751;SDS011;22718;49.494;7.036;2023-03-23T06:03:21;3.65;;;1.15;;
36751;SDS011;22718;49.494;7.036;2023-03-23T06:05:47;4.53;;;1.30;;
36751;SDS011;22718;49.494;7.036;2023-03-23T06:08:13;5.72;;;1.77;;
36751;SDS011;22718;49.494;7.036;2023-03-23T06:10:39;2.85;;;1.00;;
36751;SDS011;22718;49.494;7.036;2023-03-23T06:13:05;4.82;;;1.33;;
36751;SDS011;22718;49.494;7.036;2023-03-23T06:15:31;4.38;;;0.98;;
36751;SDS011;22718;49.494;7.036;2023-03-23T06:18:01;3.58;;;1.30;;
36751;SDS011;22718;49.494;7.036;2023-03-23T06:20:27;3.45;;;0.93;;
36751;SDS011;22718;49.494;7.036;2023-03-23T06:23:01;5.32;;;1.00;;
36751;SDS011;22718;49.494;7.036;2023-03-23T06:25:39;7.43;;;1.70;;
36751;SDS011;22718;49.494;7.036;2023-03-23T06:28:05;5.90;;;1.08;;
36751;SDS011;22718;49.494;7.036;2023-03-23T06:30:32;3.20;;;0.80;;
36751;SDS011;22718;49.494;7.036;2023-03-23T06:32:58;5.00;;;0.70;;
36751;SDS011;22718;49.494;7.036;2023-03-23T06:35:30;2.53;;;0.70;;
36751;SDS011;22718;49.494;7.036;2023-03-23T06:37:57;3.50;;;1.10;;
36751;SDS011;22718;49.494;7.036;2023-03-23T06:40:27;5.60;;;1.40;;
36751;SDS011;22718;49.494;7.036;2023-03-23T06:42:54;4.90;;;1.45;;
36751;SDS011;22718;49.494;7.036;2023-03-23T06:45:22;5.88;;;1.00;;
36751;SDS011;22718;49.494;7.036;2023-03-23T06:47:47;3.20;;;0.93;;
36751;SDS011;22718;49.494;7.036;2023-03-23T06:50:18;3.92;;;1.38;;
36751;SDS011;22718;49.494;7.036;2023-03-23T06:52:47;2.95;;;0.88;;
36751;SDS011;22718;49.494;7.036;2023-03-23T06:55:18;4.68;;;0.90;;
36751;SDS011;22718;49.494;7.036;2023-03-23T06:57:43;4.00;;;1.27;;
36751;SDS011;22718;49.494;7.036;2023-03-23T07:00:12;5.20;;;1.15;;
36751;SDS011;22718;49.494;7.036;2023-03-23T07:02:39;3.85;;;0.82;;
36751;SDS011;22718;49.494;7.036;2023-03-23T07:05:06;4.68;;;1.02;;
36751;SDS011;22718;49.494;7.036;2023-03-23T07:07:34;4.25;;;1.20;;
36751;SDS011;22718;49.494;7.036;2023-03-23T07:10:00;4.80;;;1.45;;
36751;SDS011;22718;49.494;7.036;2023-03-23T07:12:27;3.70;;;1.08;;
36751;SDS011;22718;49.494;7.036;2023-03-23T07:14:55;2.58;;;0.68;;
36751;SDS011;22718;49.494;7.036;2023-03-23T07:17:21;3.80;;;1.00;;
36751;SDS011;22718;49.494;7.036;2023-03-23T07:19:53;2.40;;;0.80;;
36751;SDS011;22718;49.494;7.036;2023-03-23T07:22:19;3.30;;;1.10;;
36751;SDS011;22718;49.494;7.036;2023-03-23T07:24:45;3.35;;;0.88;;
36751;SDS011;22718;49.494;7.036;2023-03-23T07:27:11;3.90;;;1.08;;
36751;SDS011;22718;49.494;7.036;2023-03-23T07:29:39;2.78;;;1.10;;
36751;SDS011;22718;49.494;7.036;2023-03-23T07:32:05;3.40;;;1.05;;
36751;SDS011;22718;49.494;7.036;2023-03-23T07:34:33;5.15;;;1.20;;
36751;SDS011;22718;49.494;7.036;2023-03-23T07:36:59;4.00;;;0.77;;
36751;SDS011;22718;49.494;7.036;2023-03-23T07:39:27;6.25;;;1.10;;
36751;SDS011;22718;49.494;7.036;2023-03-23T07:41:53;4.32;;;1.15;;
36751;SDS011;22718;49.494;7.036;2023-03-23T07:44:19;3.33;;;1.20;;
36751;SDS011;22718;49.494;7.036;2023-03-23T07:46:45;4.10;;;1.05;;
36751;SDS011;22718;49.494;7.036;2023-03-23T07:49:12;2.72;;;1.05;;
36751;SDS011;22718;49.494;7.036;2023-03-23T07:51:37;4.20;;;1.83;;
36751;SDS011;22718;49.494;7.036;2023-03-23T07:54:05;5.90;;;1.40;;
36751;SDS011;22718;49.494;7.036;2023-03-23T07:56:32;2.53;;;0.93;;
36751;SDS011;22718;49.494;7.036;2023-03-23T07:59:02;3.28;;;1.50;;
36751;SDS011;22718;49.494;7.036;2023-03-23T08:01:29;3.22;;;0.70;;
36751;SDS011;22718;49.494;7.036;2023-03-23T08:03:55;2.20;;;0.60;;
36751;SDS011;22718;49.494;7.036;2023-03-23T08:06:22;7.75;;;0.50;;
36751;SDS011;22718;49.494;7.036;2023-03-23T08:08:49;2.38;;;0.70;;
36751;SDS011;22718;49.494;7.036;2023-03-23T08:11:15;3.20;;;0.63;;
36751;SDS011;22718;49.494;7.036;2023-03-23T08:13:42;4.13;;;0.80;;
36751;SDS011;22718;49.494;7.036;2023-03-23T08:16:08;2.00;;;0.45;;
36751;SDS011;22718;49.494;7.036;2023-03-23T08:18:34;1.67;;;0.40;;
36751;SDS011;22718;49.494;7.036;2023-03-23T08:21:01;3.50;;;0.40;;
36751;SDS011;22718;49.494;7.036;2023-03-23T08:23:29;1.33;;;0.57;;
36751;SDS011;22718;49.494;7.036;2023-03-23T08:25:56;1.27;;;0.30;;
36751;SDS011;22718;49.494;7.036;2023-03-23T08:28:25;1.77;;;0.50;;
36751;SDS011;22718;49.494;7.036;2023-03-23T08:30:51;1.77;;;0.40;;
36751;SDS011;22718;49.494;7.036;2023-03-23T08:33:19;1.10;;;0.30;;
36751;SDS011;22718;49.494;7.036;2023-03-23T08:35:53;1.63;;;0.30;;
36751;SDS011;22718;49.494;7.036;2023-03-23T08:38:23;2.80;;;0.32;;
36751;SDS011;22718;49.494;7.036;2023-03-23T08:40:49;1.88;;;0.50;;
36751;SDS011;22718;49.494;7.036;2023-03-23T08:43:16;2.58;;;0.75;;
36751;SDS011;22718;49.494;7.036;2023-03-23T08:45:42;7.18;;;1.33;;
36751;SDS011;22718;49.494;7.036;2023-03-23T08:48:11;2.42;;;0.60;;
36751;SDS011;22718;49.494;7.036;2023-03-23T08:50:37;2.17;;;0.60;;
36751;SDS011;22718;49.494;7.036;2023-03-23T08:53:03;4.18;;;1.50;;
36751;SDS011;22718;49.494;7.036;2023-03-23T08:55:28;4.70;;;1.30;;
36751;SDS011;22718;49.494;7.036;2023-03-23T08:57:54;3.83;;;1.60;;
36751;SDS011;22718;49.494;7.036;2023-03-23T09:00:21;3.95;;;1.67;;
36751;SDS011;22718;49.494;7.036;2023-03-23T09:02:53;3.25;;;1.65;;
36751;SDS011;22718;49.494;7.036;2023-03-23T09:05:21;4.72;;;1.27;;
36751;SDS011;22718;49.494;7.036;2023-03-23T09:07:50;8.18;;;1.13;;
36751;SDS011;22718;49.494;7.036;2023-03-23T09:10:17;1.52;;;0.60;;
36751;SDS011;22718;49.494;7.036;2023-03-23T09:12:51;2.67;;;1.20;;
36751;SDS011;22718;49.494;7.036;2023-03-23T09:15:18;2.85;;;0.82;;
36751;SDS011;22718;49.494;7.036;2023-03-23T09:17:45;1.92;;;0.90;;
36751;SDS011;22718;49.494;7.036;2023-03-23T09:20:14;3.80;;;0.75;;
36751;SDS011;22718;49.494;7.036;2023-03-23T09:22:42;2.42;;;0.82;;
36751;SDS011;22718;49.494;7.036;2023-03-23T09:25:13;2.78;;;0.95;;
36751;SDS011;22718;49.494;7.036;2023-03-23T09:27:42;3.95;;;0.63;;
36751;SDS011;22718;49.494;7.036;2023-03-23T09:30:09;2.65;;;0.70;;
36751;SDS011;22718;49.494;7.036;2023-03-23T09:32:37;2.50;;;0.60;;
36751;SDS011;22718;49.494;7.036;2023-03-23T09:35:04;1.75;;;0.63;;
36751;SDS011;22718;49.494;7.036;2023-03-23T09:37:33;2.38;;;0.80;;
36751;SDS011;22718;49.494;7.036;2023-03-23T09:40:03;2.75;;;0.65;;
36751;SDS011;22718;49.494;7.036;2023-03-23T09:45:23;2.15;;;0.63;;
36751;SDS011;22718;49.494;7.036;2023-03-23T09:48:02;3.60;;;0.65;;
36751;SDS011;22718;49.494;7.036;2023-03-23T09:50:45;3.43;;;0.60;;
36751;SDS011;22718;49.494;7.036;2023-03-23T09:55:47;1.70;;;0.50;;
36751;SDS011;22718;49.494;7.036;2023-03-23T09:58:39;2.75;;;0.32;;
36751;SDS011;22718;49.494;7.036;2023-03-23T10:01:16;1.70;;;0.50;;
36751;SDS011;22718;49.494;7.036;2023-03-23T10:03:55;2.00;;;0.70;;
36751;SDS011;22718;49.494;7.036;2023-03-23T10:06:27;3.60;;;0.68;;
36751;SDS011;22718;49.494;7.036;2023-03-23T10:08:54;3.47;;;0.60;;
36751;SDS011;22718;49.494;7.036;2023-03-23T10:26:00;2.50;;;0.40;;
36751;SDS011;22718;49.494;7.036;2023-03-23T10:28:41;3.35;;;0.30;;
36751;SDS011;22718;49.494;7.036;2023-03-23T10:34:10;1.83;;;0.40;;
36751;SDS011;22718;49.494;7.036;2023-03-23T10:36:51;1.80;;;0.30;;
36751;SDS011;22718;49.494;7.036;2023-03-23T10:40:00;2.10;;;0.35;;
36751;SDS011;22718;49.494;7.036;2023-03-23T10:42:24;1.70;;;0.30;;
36751;SDS011;22718;49.494;7.036;2023-03-23T10:44:53;1.42;;;0.40;;
36751;SDS011;22718;49.494;7.036;2023-03-23T10:47:21;1.38;;;0.45;;
36751;SDS011;22718;49.494;7.036;2023-03-23T10:49:57;2.30;;;0.43;;
36751;SDS011;22718;49.494;7.036;2023-03-23T10:52:30;2.08;;;0.40;;
36751;SDS011;22718;49.494;7.036;2023-03-23T10:57:31;2.22;;;0.75;;
36751;SDS011;22718;49.494;7.036;2023-03-23T11:02:38;2.30;;;0.60;;
36751;SDS011;22718;49.494;7.036;2023-03-23T11:05:25;3.53;;;0.52;;
36751;SDS011;22718;49.494;7.036;2023-03-23T11:07:57;1.80;;;0.60;;
36751;SDS011;22718;49.494;7.036;2023-03-23T11:10:34;2.08;;;0.68;;
36751;SDS011;22718;49.494;7.036;2023-03-23T11:13:02;3.13;;;0.60;;
36751;SDS011;22718;49.494;7.036;2023-03-23T11:15:34;1.85;;;0.50;;
36751;SDS011;22718;49.494;7.036;2023-03-23T11:18:17;4.93;;;0.65;;
36751;SDS011;22718;49.494;7.036;2023-03-23T11:20:45;2.85;;;0.43;;
36751;SDS011;22718;49.494;7.036;2023-03-23T11:23:23;2.25;;;0.60;;
36751;SDS011;22718;49.494;7.036;2023-03-23T11:25:56;2.75;;;0.85;;
36751;SDS011;22718;49.494;7.036;2023-03-23T11:28:32;1.67;;;0.47;;
36751;SDS011;22718;49.494;7.036;2023-03-23T11:31:04;1.67;;;0.40;;
36751;SDS011;22718;49.494;7.036;2023-03-23T11:33:38;3.75;;;0.77;;
36751;SDS011;22718;49.494;7.036;2023-03-23T11:36:16;1.48;;;0.40;;
36751;SDS011;22718;49.494;7.036;2023-03-23T11:38:42;4.13;;;0.55;;
36751;SDS011;22718;49.494;7.036;2023-03-23T11:41:12;1.77;;;0.45;;
36751;SDS011;22718;49.494;7.036;2023-03-23T11:43:47;1.52;;;0.40;;
36751;SDS011;22718;49.494;7.036;2023-03-23T11:46:36;1.92;;;0.40;;
36751;SDS011;22718;49.494;7.036;2023-03-23T11:52:26;2.05;;;0.47;;
36751;SDS011;22718;49.494;7.036;2023-03-23T11:57:52;2.38;;;0.32;;
36751;SDS011;22718;49.494;7.036;2023-03-23T12:00:21;2.30;;;0.40;;
36751;SDS011;22718;49.494;7.036;2023-03-23T12:16:42;2.55;;;0.30;;
36751;SDS011;22718;49.494;7.036;2023-03-23T12:27:58;1.83;;;0.30;;
36751;SDS011;22718;49.494;7.036;2023-03-23T12:30:42;3.17;;;0.30;;
36751;SDS011;22718;49.494;7.036;2023-03-23T12:33:17;5.15;;;0.32;;
36751;SDS011;22718;49.494;7.036;2023-03-23T12:36:05;2.88;;;0.32;;
36751;SDS011;22718;49.494;7.036;2023-03-23T12:41:20;1.75;;;0.32;;
36751;SDS011;22718;49.494;7.036;2023-03-23T12:44:02;1.40;;;0.30;;
36751;SDS011;22718;49.494;7.036;2023-03-23T12:51:58;1.38;;;0.30;;
36751;SDS011;22718;49.494;7.036;2023-03-23T12:57:14;1.63;;;0.32;;
36751;SDS011;22718;49.494;7.036;2023-03-23T12:59:52;0.80;;;0.20;;
36751;SDS011;22718;49.494;7.036;2023-03-23T13:02:59;2.83;;;0.30;;
36751;SDS011;22718;49.494;7.036;2023-03-23T13:08:30;1.35;;;0.30;;
36751;SDS011;22718;49.494;7.036;2023-03-23T13:11:15;4.20;;;0.63;;
36751;SDS011;22718;49.494;7.036;2023-03-23T13:13:53;2.42;;;0.30;;
36751;SDS011;22718;49.494;7.036;2023-03-23T13:19:49;3.00;;;0.20;;
36751;SDS011;22718;49.494;7.036;2023-03-23T13:22:59;1.38;;;0.30;;
36751;SDS011;22718;49.494;7.036;2023-03-23T13:25:17;0.82;;;0.20;;
36751;SDS011;22718;49.494;7.036;2023-03-23T13:30:27;3.75;;;0.32;;
36751;SDS011;22718;49.494;7.036;2023-03-23T13:33:04;0.77;;;0.20;;
36751;SDS011;22718;49.494;7.036;2023-03-23T13:35:35;1.80;;;0.77;;
36751;SDS011;22718;49.494;7.036;2023-03-23T13:38:10;2.58;;;0.30;;
36751;SDS011;22718;49.494;7.036;2023-03-23T13:40:42;1.50;;;0.33;;
36751;SDS011;22718;49.494;7.036;2023-03-23T13:43:09;0.80;;;0.20;;
36751;SDS011;22718;49.494;7.036;2023-03-23T13:45:42;4.60;;;0.30;;
36751;SDS011;22718;49.494;7.036;2023-03-23T13:53:28;2.00;;;0.32;;
36751;SDS011;22718;49.494;7.036;2023-03-23T13:56:13;2.15;;;0.50;;
36751;SDS011;22718;49.494;7.036;2023-03-23T13:58:44;2.28;;;0.30;;
36751;SDS011;22718;49.494;7.036;2023-03-23T14:01:18;5.07;;;0.70;;
36751;SDS011;22718;49.494;7.036;2023-03-23T14:03:57;1.15;;;0.30;;
36751;SDS011;22718;49.494;7.036;2023-03-23T14:06:26;1.42;;;0.30;;
36751;SDS011;22718;49.494;7.036;2023-03-23T14:09:12;1.38;;;0.30;;
36751;SDS011;22718;49.494;7.036;2023-03-23T14:12:04;5.82;;;0.50;;
36751;SDS011;22718;49.494;7.036;2023-03-23T14:15:22;2.53;;;0.88;;
36751;SDS011;22718;49.494;7.036;2023-03-23T14:17:34;1.38;;;0.40;;
36751;SDS011;22718;49.494;7.036;2023-03-23T14:20:06;1.40;;;0.30;;
36751;SDS011;22718;49.494;7.036;2023-03-23T14:22:52;2.65;;;0.20;;
36751;SDS011;22718;49.494;7.036;2023-03-23T14:25:19;1.75;;;0.30;;
36751;SDS011;22718;49.494;7.036;2023-03-23T14:27:50;1.70;;;0.40;;
36751;SDS011;22718;49.494;7.036;2023-03-23T14:30:21;1.33;;;0.30;;
36751;SDS011;22718;49.494;7.036;2023-03-23T14:32:50;1.75;;;0.40;;
36751;SDS011;22718;49.494;7.036;2023-03-23T14:35:28;0.88;;;0.30;;
36751;SDS011;22718;49.494;7.036;2023-03-23T14:37:56;1.83;;;0.22;;
36751;SDS011;22718;49.494;7.036;2023-03-23T14:42:55;1.80;;;0.30;;
36751;SDS011;22718;49.494;7.036;2023-03-23T14:45:22;3.70;;;1.17;;
36751;SDS011;22718;49.494;7.036;2023-03-23T14:47:54;2.15;;;0.40;;
36751;SDS011;22718;49.494;7.036;2023-03-23T14:50:30;1.00;;;0.30;;
36751;SDS011;22718;49.494;7.036;2023-03-23T14:55:43;2.78;;;0.68;;
36751;SDS011;22718;49.494;7.036;2023-03-23T14:58:14;1.75;;;0.50;;
36751;SDS011;22718;49.494;7.036;2023-03-23T15:00:43;1.13;;;0.35;;
36751;SDS011;22718;49.494;7.036;2023-03-23T15:03:19;3.85;;;0.30;;
36751;SDS011;22718;49.494;7.036;2023-03-23T15:05:53;2.25;;;0.65;;
36751;SDS011;22718;49.494;7.036;2023-03-23T15:08:27;2.08;;;0.32;;
36751;SDS011;22718;49.494;7.036;2023-03-23T15:11:06;1.83;;;0.30;;
36751;SDS011;22718;49.494;7.036;2023-03-23T15:16:03;1.98;;;0.50;;
36751;SDS011;22718;49.494;7.036;2023-03-23T15:18:33;2.00;;;0.55;;
36751;SDS011;22718;49.494;7.036;2023-03-23T15:21:19;1.70;;;0.40;;
36751;SDS011;22718;49.494;7.036;2023-03-23T15:24:01;1.00;;;0.30;;
36751;SDS011;22718;49.494;7.036;2023-03-23T15:26:49;1.33;;;0.30;;
36751;SDS011;22718;49.494;7.036;2023-03-23T15:29:17;3.33;;;0.38;;
36751;SDS011;22718;49.494;7.036;2023-03-23T15:31:51;3.35;;;0.40;;
36751;SDS011;22718;49.494;7.036;2023-03-23T15:34:24;1.83;;;0.28;;
36751;SDS011;22718;49.494;7.036;2023-03-23T15:36:55;2.85;;;0.30;;
36751;SDS011;22718;49.494;7.036;2023-03-23T15:39:26;1.90;;;0.68;;
36751;SDS011;22718;49.494;7.036;2023-03-23T15:41:53;2.42;;;0.20;;
36751;SDS011;22718;49.494;7.036;2023-03-23T15:44:24;2.67;;;0.70;;
36751;SDS011;22718;49.494;7.036;2023-03-23T15:50:18;1.67;;;0.20;;
36751;SDS011;22718;49.494;7.036;2023-03-23T15:53:00;1.83;;;0.30;;
36751;SDS011;22718;49.494;7.036;2023-03-23T15:55:40;2.38;;;0.60;;
36751;SDS011;22718;49.494;7.036;2023-03-23T15:58:10;1.30;;;0.40;;
36751;SDS011;22718;49.494;7.036;2023-03-23T16:00:43;2.47;;;0.40;;
36751;SDS011;22718;49.494;7.036;2023-03-23T16:03:23;1.67;;;0.30;;
36751;SDS011;22718;49.494;7.036;2023-03-23T16:05:52;7.28;;;0.63;;
36751;SDS011;22718;49.494;7.036;2023-03-23T16:08:19;3.53;;;0.40;;
36751;SDS011;22718;49.494;7.036;2023-03-23T16:10:45;1.13;;;0.20;;
36751;SDS011;22718;49.494;7.036;2023-03-23T16:13:12;2.10;;;0.35;;
36751;SDS011;22718;49.494;7.036;2023-03-23T16:15:37;3.00;;;0.40;;
36751;SDS011;22718;49.494;7.036;2023-03-23T16:18:03;1.60;;;0.40;;
36751;SDS011;22718;49.494;7.036;2023-03-23T16:20:32;1.60;;;0.30;;
36751;SDS011;22718;49.494;7.036;2023-03-23T16:23:01;1.05;;;0.20;;
36751;SDS011;22718;49.494;7.036;2023-03-23T16:25:29;1.95;;;0.20;;
36751;SDS011;22718;49.494;7.036;2023-03-23T16:28:07;1.48;;;0.30;;
36751;SDS011;22718;49.494;7.036;2023-03-23T16:30:40;1.88;;;0.82;;
36751;SDS011;22718;49.494;7.036;2023-03-23T16:33:06;1.77;;;0.30;;
36751;SDS011;22718;49.494;7.036;2023-03-23T16:35:35;1.67;;;0.30;;
36751;SDS011;22718;49.494;7.036;2023-03-23T16:38:06;1.90;;;0.30;;
36751;SDS011;22718;49.494;7.036;2023-03-23T16:40:32;3.35;;;0.77;;
36751;SDS011;22718;49.494;7.036;2023-03-23T16:42:58;1.48;;;0.35;;
36751;SDS011;22718;49.494;7.036;2023-03-23T16:45:26;3.22;;;0.32;;
36751;SDS011;22718;49.494;7.036;2023-03-23T16:47:52;3.45;;;0.30;;
36751;SDS011;22718;49.494;7.036;2023-03-23T16:50:25;1.10;;;0.20;;
36751;SDS011;22718;49.494;7.036;2023-03-23T16:52:53;2.70;;;0.40;;
36751;SDS011;22718;49.494;7.036;2023-03-23T16:55:23;1.77;;;0.30;;
36751;SDS011;22718;49.494;7.036;2023-03-23T16:57:53;1.10;;;0.30;;
36751;SDS011;22718;49.494;7.036;2023-03-23T17:00:22;1.00;;;0.30;;
36751;SDS011;22718;49.494;7.036;2023-03-23T17:02:51;1.33;;;0.25;;
36751;SDS011;22718;49.494;7.036;2023-03-23T17:05:26;1.10;;;0.30;;
36751;SDS011;22718;49.494;7.036;2023-03-23T17:07:53;1.88;;;0.40;;